Time;durP1;ratioP1;P1;durP2;ratioP2;P2;SDS_P1;SDS_P2;PMS_P1;PMS_P2;Temp;Humidity;BMP_temperature;BMP_pressure;BME280_temperature;BME280_humidity;BME280_pressure;Samples;Min_cycle;Max_cycle;Signal;HPM_P1;HPM_P2
2024/01/15 00:01:02;;;;;;;;;;;;;;;0.21;100.00;100333.00;5038898;28;20277;-73
2024/01/15 00:03:28;;;;;;;;;;;;;;;0.18;100.00;100323.47;5024591;28;19970;-72
2024/01/15 00:05:53;;;;;;;;;;;;;;;0.19;100.00;100317.50;5053800;28;20410;-72
2024/01/15 00:08:19;;;;;;;;;;;;;;;0.14;100.00;100313.94;5019857;28;19920;-73
2024/01/15 00:10:44;;;;;;;;;;;;;;;0.14;100.00;100308.78;5023544;28;20439;-73
2024/01/15 00:13:09;;;;;;;;;;;;;;;0.11;100.00;100306.16;5034367;28;20400;-72
2024/01/15 00:15:35;;;;;;;;;;;;;;;0.07;100.00;100300.06;5021679;28;20351;-73
2024/01/15 00:18:00;;;;;;;;;;;;;;;-0.01;100.00;100299.03;5033049;28;20342;-73
2024/01/15 00:20:25;;;;;;;;;;;;;;;-0.08;100.00;100299.72;5047446;28;19928;-71
2024/01/15 00:22:51;;;;;;;;;;;;;;;-0.15;100.00;100297.84;5033350;28;19967;-72
2024/01/15 00:25:19;;;;;;;;;;;;;;;-0.21;100.00;100289.13;5027901;28;19925;-72
2024/01/15 00:27:44;;;;;;;;;;;;;;;-0.23;100.00;100295.06;5023180;28;19928;-72
2024/01/15 00:30:09;;;;;;;;;;;;;;;-0.25;100.00;100289.03;5036844;28;19921;-72
2024/01/15 00:32:36;;;;;;;;;;;;;;;-0.32;100.00;100284.56;5026840;28;20284;-72
2024/01/15 00:35:01;;;;;;;;;;;;;;;-0.38;100.00;100288.72;5048990;28;20380;-73
2024/01/15 00:37:26;;;;;;;;;;;;;;;-0.43;100.00;100284.28;5030145;28;19971;-72
2024/01/15 00:39:52;;;;;;;;;;;;;;;-0.45;100.00;100289.41;5023095;28;19968;-72
2024/01/15 00:42:17;;;;;;;;;;;;;;;-0.47;100.00;100277.34;5023833;28;19967;-73
2024/01/15 00:44:43;;;;;;;;;;;;;;;-0.53;100.00;100275.50;5024574;28;19932;-72
2024/01/15 00:47:08;;;;;;;;;;;;;;;-0.55;100.00;100266.84;5025727;28;19921;-73
2024/01/15 00:49:33;;;;;;;;;;;;;;;-0.61;100.00;100266.72;5031346;28;20049;-72
2024/01/15 00:51:59;;;;;;;;;;;;;;;-0.60;100.00;100278.75;5045032;28;19928;-73
2024/01/15 00:54:24;;;;;;;;;;;;;;;-0.67;100.00;100264.00;5035915;28;19920;-72
2024/01/15 00:56:49;;;;;;;;;;;;;;;-0.74;100.00;100258.69;5028609;28;19960;-72
2024/01/15 00:59:15;;;;;;;;;;;;;;;-0.76;100.00;100270.66;5023987;28;20007;-70
2024/01/15 01:01:45;;;;;;;;;;;;;;;-0.82;100.00;100262.78;5026991;28;19963;-70
2024/01/15 01:04:11;;;;;;;;;;;;;;;-0.84;100.00;100263.59;5041638;28;20388;-70
2024/01/15 01:06:36;;;;;;;;;;;;;;;-0.91;100.00;100247.97;5043131;28;19943;-69
2024/01/15 01:09:02;;;;;;;;;;;;;;;-0.92;100.00;100253.06;5034480;28;20019;-70
2024/01/15 01:11:27;;;;;;;;;;;;;;;-0.94;100.00;100245.31;5033592;28;19928;-69
2024/01/15 01:13:52;;;;;;;;;;;;;;;-0.89;100.00;100250.56;5046698;28;19924;-69
2024/01/15 01:16:18;;;;;;;;;;;;;;;-0.95;100.00;100248.75;5035348;28;20015;-69
2024/01/15 01:18:43;;;;;;;;;;;;;;;-0.98;100.00;100250.34;5031782;28;19974;-69
2024/01/15 01:21:08;;;;;;;;;;;;;;;-1.01;100.00;100255.44;5017209;28;20035;-72
2024/01/15 01:23:33;;;;;;;;;;;;;;;-1.03;100.00;100252.81;5049573;28;20322;-72
2024/01/15 01:25:59;;;;;;;;;;;;;;;-1.08;100.00;100239.84;5034435;28;19945;-73
2024/01/15 01:28:24;;;;;;;;;;;;;;;-1.11;100.00;100249.16;5026738;28;19920;-73
2024/01/15 01:30:49;;;;;;;;;;;;;;;-1.08;100.00;100249.25;5029869;28;19924;-73
2024/01/15 01:33:15;;;;;;;;;;;;;;;-1.13;100.00;100246.56;5022772;28;19974;-72
2024/01/15 01:35:40;;;;;;;;;;;;;;;-1.13;100.00;100253.41;5030307;28;20301;-72
2024/01/15 01:38:06;;;;;;;;;;;;;;;-1.11;100.00;100252.59;5026401;28;20007;-73
2024/01/15 01:40:31;;;;;;;;;;;;;;;-1.14;100.00;100257.66;5049003;28;20291;-73
2024/01/15 01:42:57;;;;;;;;;;;;;;;-1.11;100.00;100259.47;5044437;28;20023;-72
2024/01/15 01:45:23;;;;;;;;;;;;;;;-1.10;100.00;100259.50;5022371;28;19925;-72
2024/01/15 01:47:48;;;;;;;;;;;;;;;-1.12;100.00;100258.59;5029256;28;19939;-73
2024/01/15 01:50:14;;;;;;;;;;;;;;;-1.16;100.00;100256.78;5031137;28;19935;-73
2024/01/15 01:52:39;;;;;;;;;;;;;;;-1.17;100.00;100257.59;5047508;28;19916;-72
2024/01/15 01:55:06;;;;;;;;;;;;;;;-1.22;100.00;100251.47;5051928;28;19916;-72
2024/01/15 01:57:33;;;;;;;;;;;;;;;-1.25;100.00;100248.78;5048448;28;19924;-73
2024/01/15 02:00:01;;;;;;;;;;;;;;;-1.27;100.00;100255.63;5050035;28;20309;-72
2024/01/15 02:02:26;;;;;;;;;;;;;;;-1.29;100.00;100254.72;5051293;28;19920;-72
2024/01/15 02:04:51;;;;;;;;;;;;;;;-1.31;100.00;100257.22;5025129;28;19929;-72
2024/01/15 02:07:17;;;;;;;;;;;;;;;-1.32;100.00;100254.59;5029856;28;19929;-72
2024/01/15 02:09:44;;;;;;;;;;;;;;;-1.32;100.00;100257.16;5032834;28;19921;-72
2024/01/15 02:12:09;;;;;;;;;;;;;;;-1.32;100.00;100259.75;5041324;28;20028;-73
2024/01/15 02:14:34;;;;;;;;;;;;;;;-1.30;100.00;100252.97;5023723;28;20404;-73
2024/01/15 02:17:00;;;;;;;;;;;;;;;-1.30;100.00;100251.25;5035198;28;19948;-72
2024/01/15 02:19:25;;;;;;;;;;;;;;;-1.30;100.00;100250.38;5041650;28;19916;-73
2024/01/15 02:21:51;;;;;;;;;;;;;;;-1.32;100.00;100242.63;5030487;28;19924;-70
2024/01/15 02:24:16;;;;;;;;;;;;;;;-1.29;100.00;100245.28;5035730;28;19951;-71
2024/01/15 02:26:42;;;;;;;;;;;;;;;-1.26;100.00;100239.38;5031969;28;19920;-69
2024/01/15 02:29:08;;;;;;;;;;;;;;;-1.27;100.00;100247.91;5035837;28;19920;-72
2024/01/15 02:31:33;;;;;;;;;;;;;;;-1.30;100.00;100243.53;5047223;28;20322;-72
2024/01/15 02:33:59;;;;;;;;;;;;;;;-1.32;100.00;100241.75;5031835;28;19971;-73
2024/01/15 02:36:24;;;;;;;;;;;;;;;-1.33;100.00;100232.31;5039017;28;20071;-72
2024/01/15 02:38:49;;;;;;;;;;;;;;;-1.35;100.00;100241.69;5049270;28;19956;-73
2024/01/15 02:41:15;;;;;;;;;;;;;;;-1.40;100.00;100234.69;5036931;28;20433;-72
2024/01/15 02:43:41;;;;;;;;;;;;;;;-1.42;100.00;100233.81;5022172;28;20028;-72
2024/01/15 02:46:06;;;;;;;;;;;;;;;-1.44;100.00;100243.19;5047519;28;19920;-72
2024/01/15 02:48:32;;;;;;;;;;;;;;;-1.42;100.00;100238.94;5028506;28;20377;-72
2024/01/15 02:50:58;;;;;;;;;;;;;;;-1.44;100.00;100238.06;5034757;28;20364;-72
2024/01/15 02:53:27;;;;;;;;;;;;;;;-1.47;100.00;100235.38;5032206;28;19950;-73
2024/01/15 02:55:53;;;;;;;;;;;;;;;-1.45;100.00;100236.31;5022291;28;19924;-69
2024/01/15 02:58:18;;;;;;;;;;;;;;;-1.46;100.00;100237.13;5044038;28;19920;-69
2024/01/15 03:00:43;;;;;;;;;;;;;;;-1.46;100.00;100251.69;5019624;28;20273;-69
2024/01/15 03:03:09;;;;;;;;;;;;;;;-1.50;100.00;100250.72;5036802;28;19982;-69
2024/01/15 03:05:34;;;;;;;;;;;;;;;-1.51;100.00;100248.09;5030900;28;19920;-73
2024/01/15 03:07:59;;;;;;;;;;;;;;;-1.52;100.00;100251.50;5030339;28;19931;-72
2024/01/15 03:10:25;;;;;;;;;;;;;;;-1.55;100.00;100252.28;5019633;28;19929;-72
2024/01/15 03:12:50;;;;;;;;;;;;;;;-1.56;100.00;100250.53;5019430;28;20043;-73
2024/01/15 03:15:15;;;;;;;;;;;;;;;-1.60;100.00;100253.84;5022353;28;19994;-73
2024/01/15 03:17:42;;;;;;;;;;;;;;;-1.60;100.00;100249.56;5023754;28;20393;-72
2024/01/15 03:20:07;;;;;;;;;;;;;;;-1.59;100.00;100251.31;5022552;28;20003;-73
2024/01/15 03:22:33;;;;;;;;;;;;;;;-1.63;100.00;100252.06;5091539;22;20026;-73
2024/01/15 03:24:58;;;;;;;;;;;;;;;-1.64;100.00;100252.91;5031081;28;19925;-72
2024/01/15 03:27:24;;;;;;;;;;;;;;;-1.66;100.00;100238.28;5022045;28;20368;-73
2024/01/15 03:29:49;;;;;;;;;;;;;;;-1.66;100.00;100248.56;5059853;22;19937;-69
2024/01/15 03:32:16;;;;;;;;;;;;;;;-1.67;100.00;100242.53;5043254;28;20478;-73
2024/01/15 03:34:41;;;;;;;;;;;;;;;-1.64;100.00;100241.75;5041650;28;19993;-73
2024/01/15 03:37:06;;;;;;;;;;;;;;;-1.64;100.00;100239.19;5070419;28;19928;-69
2024/01/15 03:39:31;;;;;;;;;;;;;;;-1.65;100.00;100229.72;5046777;28;19929;-69
2024/01/15 03:41:57;;;;;;;;;;;;;;;-1.65;100.00;100228.03;5067083;28;19920;-69
2024/01/15 03:44:22;;;;;;;;;;;;;;;-1.65;100.00;100229.72;5049369;28;19970;-69
2024/01/15 03:46:48;;;;;;;;;;;;;;;-1.65;100.00;100225.47;5018540;28;19975;-69
2024/01/15 03:49:13;;;;;;;;;;;;;;;-1.64;100.00;100227.22;5117595;22;19933;-73
2024/01/15 03:51:38;;;;;;;;;;;;;;;-1.60;100.00;100230.72;5040539;28;19974;-73
2024/01/15 03:54:04;;;;;;;;;;;;;;;-1.63;100.00;100222.94;5039746;28;19920;-72
2024/01/15 03:56:29;;;;;;;;;;;;;;;-1.59;100.00;100223.06;5051964;28;19935;-72
2024/01/15 03:58:54;;;;;;;;;;;;;;;-1.57;100.00;100217.97;5034393;28;19928;-72
2024/01/15 04:01:20;;;;;;;;;;;;;;;-1.60;100.00;100216.16;5037895;28;20011;-73
2024/01/15 04:03:45;;;;;;;;;;;;;;;-1.56;100.00;100222.28;5038602;28;20085;-72
2024/01/15 04:06:10;;;;;;;;;;;;;;;-1.49;100.00;100221.63;5033755;28;20365;-73
2024/01/15 04:08:36;;;;;;;;;;;;;;;-1.42;100.00;100213.25;5033791;28;19971;-73
2024/01/15 04:11:01;;;;;;;;;;;;;;;-1.37;100.00;100204.78;5054550;28;20364;-73
2024/01/15 04:13:27;;;;;;;;;;;;;;;-1.28;100.00;100200.75;5053901;28;19916;-73
2024/01/15 04:15:52;;;;;;;;;;;;;;;-1.24;100.00;100202.56;5032389;28;19928;-73
2024/01/15 04:18:18;;;;;;;;;;;;;;;-1.17;100.00;100193.31;5034658;28;20376;-70
2024/01/15 04:20:43;;;;;;;;;;;;;;;-1.13;100.00;100197.72;5023925;28;19930;-70
2024/01/15 04:23:09;;;;;;;;;;;;;;;-1.07;100.00;100194.41;5053375;28;19955;-70
2024/01/15 04:25:34;;;;;;;;;;;;;;;-1.05;100.00;100188.50;5053914;28;19952;-70
2024/01/15 04:27:59;;;;;;;;;;;;;;;-0.99;100.00;100185.19;5025051;28;19947;-69
2024/01/15 04:30:25;;;;;;;;;;;;;;;-0.87;100.00;100200.06;5053344;28;20364;-70
2024/01/15 04:32:51;;;;;;;;;;;;;;;-0.85;100.00;100190.66;5035999;28;20006;-70
2024/01/15 04:35:16;;;;;;;;;;;;;;;-0.83;100.00;100195.84;5049012;28;19916;-69
2024/01/15 04:37:42;;;;;;;;;;;;;;;-0.79;100.00;100190.81;5053242;28;20421;-70
2024/01/15 04:40:08;;;;;;;;;;;;;;;-0.73;100.00;100197.81;5023299;28;20008;-69
2024/01/15 04:42:33;;;;;;;;;;;;;;;-0.71;100.00;100184.13;5051516;28;19928;-70
2024/01/15 04:44:59;;;;;;;;;;;;;;;-0.67;100.00;100184.25;5051402;28;19920;-69
2024/01/15 04:47:24;;;;;;;;;;;;;;;-0.66;100.00;100175.66;5052874;28;20356;-69
2024/01/15 04:49:50;;;;;;;;;;;;;;;-0.60;100.00;100170.69;5053825;28;19927;-70
2024/01/15 04:52:16;;;;;;;;;;;;;;;-0.60;100.00;100165.53;5023069;28;19925;-70
2024/01/15 04:54:41;;;;;;;;;;;;;;;-0.57;100.00;100168.16;5034373;28;19920;-70
2024/01/15 04:57:07;;;;;;;;;;;;;;;-0.61;100.00;100171.50;5051221;28;19923;-70
2024/01/15 04:59:32;;;;;;;;;;;;;;;-0.59;100.00;100178.44;5027009;28;19943;-69
2024/01/15 05:01:57;;;;;;;;;;;;;;;-0.56;100.00;100175.91;5024927;28;19920;-70
2024/01/15 05:04:24;;;;;;;;;;;;;;;-0.53;100.00;100178.56;5037298;28;20019;-70
2024/01/15 05:06:50;;;;;;;;;;;;;;;-0.51;100.00;100178.59;5052853;28;19952;-70
2024/01/15 05:09:15;;;;;;;;;;;;;;;-0.54;100.00;100166.50;5072190;28;20347;-70
2024/01/15 05:11:40;;;;;;;;;;;;;;;-0.53;100.00;100167.41;5052904;28;19974;-70
2024/01/15 05:14:06;;;;;;;;;;;;;;;-0.51;100.00;100173.44;5035525;28;19920;-70
2024/01/15 05:16:31;;;;;;;;;;;;;;;-0.53;100.00;100183.72;5044795;28;19935;-70
2024/01/15 05:18:56;;;;;;;;;;;;;;;-0.53;100.00;100178.56;5053463;28;20283;-70
2024/01/15 05:21:21;;;;;;;;;;;;;;;-0.53;100.00;100175.13;5052113;28;19921;-71
2024/01/15 05:23:47;;;;;;;;;;;;;;;-0.51;100.00;100170.88;5051508;28;19920;-70
2024/01/15 05:26:12;;;;;;;;;;;;;;;-0.50;100.00;100170.03;5020865;28;20554;-70
2024/01/15 05:28:37;;;;;;;;;;;;;;;-0.50;100.00;100169.16;5032343;28;19924;-70
2024/01/15 05:31:04;;;;;;;;;;;;;;;-0.48;100.00;100170.94;5034967;28;19935;-70
2024/01/15 05:33:29;;;;;;;;;;;;;;;-0.47;100.00;100167.53;5051666;28;19924;-70
2024/01/15 05:35:55;;;;;;;;;;;;;;;-0.47;100.00;100164.09;5035802;28;20019;-71
2024/01/15 05:38:20;;;;;;;;;;;;;;;-0.47;100.00;100157.25;5023151;28;20364;-70
2024/01/15 05:40:45;;;;;;;;;;;;;;;-0.47;100.00;100156.38;5052609;28;19920;-70
2024/01/15 05:43:11;;;;;;;;;;;;;;;-0.48;100.00;100163.22;5022243;28;20000;-70
2024/01/15 05:45:37;;;;;;;;;;;;;;;-0.49;100.00;100164.03;5038803;28;20004;-70
2024/01/15 05:48:03;;;;;;;;;;;;;;;-0.50;100.00;100161.44;5069496;28;19916;-70
2024/01/15 05:50:29;;;;;;;;;;;;;;;-0.47;100.00;100161.53;5033685;28;19920;-70
2024/01/15 05:52:54;;;;;;;;;;;;;;;-0.49;100.00;100163.19;5049362;28;20269;-70
2024/01/15 05:55:19;;;;;;;;;;;;;;;-0.49;100.00;100169.19;5051847;28;20295;-70
2024/01/15 05:57:45;;;;;;;;;;;;;;;-0.49;100.00;100152.88;5032201;28;20433;-70
2024/01/15 06:00:10;;;;;;;;;;;;;;;-0.49;100.00;100156.31;5052145;28;19959;-70
2024/01/15 06:02:39;;;;;;;;;;;;;;;-0.51;100.00;100152.84;5034390;28;19924;-70
2024/01/15 06:05:07;;;;;;;;;;;;;;;-0.47;100.00;100151.22;5035767;28;19925;-70
2024/01/15 06:07:38;;;;;;;;;;;;;;;-0.53;100.00;100154.53;5036496;28;20273;-70
2024/01/15 06:10:04;;;;;;;;;;;;;;;-0.52;100.00;100145.97;5030261;28;19948;-70
2024/01/15 06:12:30;;;;;;;;;;;;;;;-0.53;100.00;100141.66;5056151;28;20024;-73
2024/01/15 06:14:55;;;;;;;;;;;;;;;-0.56;100.00;100137.31;5056806;28;20003;-73
2024/01/15 06:17:20;;;;;;;;;;;;;;;-0.57;100.00;100139.84;5056510;28;20326;-70
2024/01/15 06:19:46;;;;;;;;;;;;;;;-0.59;100.00;100133.78;5046032;28;19928;-70
2024/01/15 06:22:11;;;;;;;;;;;;;;;-0.63;100.00;100127.72;5049130;28;19924;-70
2024/01/15 06:24:36;;;;;;;;;;;;;;;-0.68;100.00;100131.88;5038482;28;19924;-70
2024/01/15 06:27:02;;;;;;;;;;;;;;;-0.68;100.00;100134.47;5039075;28;19932;-70
2024/01/15 06:29:28;;;;;;;;;;;;;;;-0.68;100.00;100133.59;5050210;28;19923;-70
2024/01/15 06:31:53;;;;;;;;;;;;;;;-0.70;100.00;100136.13;5055701;28;20003;-70
2024/01/15 06:34:18;;;;;;;;;;;;;;;-0.71;100.00;100132.69;5042965;28;20356;-70
2024/01/15 06:36:44;;;;;;;;;;;;;;;-0.70;100.00;100131.84;5043477;28;19920;-70
2024/01/15 06:39:10;;;;;;;;;;;;;;;-0.71;100.00;100121.53;5035949;28;20023;-73
2024/01/15 06:41:37;;;;;;;;;;;;;;;-0.72;100.00;100133.53;5048860;28;20376;-73
2024/01/15 06:44:02;;;;;;;;;;;;;;;-0.67;100.00;100132.78;5055622;28;19916;-72
2024/01/15 06:46:30;;;;;;;;;;;;;;;-0.68;100.00;100129.31;5039101;28;19970;-72
2024/01/15 06:48:56;;;;;;;;;;;;;;;-0.70;100.00;100131.84;5053426;28;20295;-72
2024/01/15 06:51:21;;;;;;;;;;;;;;;-0.71;100.00;100118.94;5026482;28;20408;-72
2024/01/15 06:53:47;;;;;;;;;;;;;;;-0.72;100.00;100130.97;5039455;28;19923;-73
2024/01/15 06:56:12;;;;;;;;;;;;;;;-0.71;100.00;100132.69;5038760;28;20020;-72
2024/01/15 06:58:38;;;;;;;;;;;;;;;-0.66;100.00;100129.34;5036537;28;19956;-72
2024/01/15 07:01:04;;;;;;;;;;;;;;;-0.68;100.00;100128.44;5035927;28;19962;-72
2024/01/15 07:03:30;;;;;;;;;;;;;;;-0.65;100.00;100141.38;5023503;28;19917;-72
2024/01/15 07:05:56;;;;;;;;;;;;;;;-0.66;100.00;100139.63;5019841;28;19947;-72
2024/01/15 07:08:21;;;;;;;;;;;;;;;-0.64;100.00;100143.13;5029784;28;19921;-72
2024/01/15 07:10:46;;;;;;;;;;;;;;;-0.63;100.00;100134.56;5035164;28;20364;-72
2024/01/15 07:13:12;;;;;;;;;;;;;;;-0.63;100.00;100129.41;5018941;28;19921;-72
2024/01/15 07:15:37;;;;;;;;;;;;;;;-0.61;100.00;100143.19;5036070;28;20399;-72
2024/01/15 07:18:02;;;;;;;;;;;;;;;-0.59;100.00;100142.41;5035213;28;19916;-72
2024/01/15 07:20:28;;;;;;;;;;;;;;;-0.57;100.00;100137.28;5020015;28;19998;-72
2024/01/15 07:22:54;;;;;;;;;;;;;;;-0.58;100.00;100138.13;5033432;28;19916;-72
2024/01/15 07:25:19;;;;;;;;;;;;;;;-0.62;100.00;100131.16;5039281;28;19921;-73
2024/01/15 07:27:46;;;;;;;;;;;;;;;-0.60;100.00;100130.34;5055073;28;19920;-72
2024/01/15 07:30:12;;;;;;;;;;;;;;;-0.63;100.00;100125.16;5039020;28;20011;-72
2024/01/15 07:32:37;;;;;;;;;;;;;;;-0.62;100.00;100128.59;5055687;28;20039;-72
2024/01/15 07:35:03;;;;;;;;;;;;;;;-0.60;100.00;100132.06;5039324;28;20361;-72
2024/01/15 07:37:30;;;;;;;;;;;;;;;-0.64;100.00;100132.84;5039246;28;19923;-72
2024/01/15 07:39:56;;;;;;;;;;;;;;;-0.62;100.00;100142.31;5039331;28;19920;-72
2024/01/15 07:42:21;;;;;;;;;;;;;;;-0.62;100.00;100151.75;5037464;28;19921;-72
2024/01/15 07:44:46;;;;;;;;;;;;;;;-0.63;100.00;100150.00;5035380;28;19925;-72
2024/01/15 07:47:12;;;;;;;;;;;;;;;-0.60;100.00;100152.66;5035749;28;19921;-72
2024/01/15 07:49:37;;;;;;;;;;;;;;;-0.66;100.00;100148.25;5035634;28;20011;-72
2024/01/15 07:52:05;;;;;;;;;;;;;;;-0.66;100.00;100148.25;5064437;28;19974;-72
2024/01/15 07:54:30;;;;;;;;;;;;;;;-0.66;100.00;100155.06;5035597;28;19925;-72
2024/01/15 07:56:57;;;;;;;;;;;;;;;-0.63;100.00;100152.56;5018671;28;19947;-72
2024/01/15 07:59:22;;;;;;;;;;;;;;;-0.67;100.00;100154.22;5035338;28;20011;-72
2024/01/15 08:01:47;;;;;;;;;;;;;;;-0.66;100.00;100155.06;5048576;28;20012;-72
2024/01/15 08:04:13;;;;;;;;;;;;;;;-0.64;100.00;100153.44;5055389;28;19927;-72
2024/01/15 08:06:38;;;;;;;;;;;;;;;-0.64;100.00;100154.28;5054495;28;20296;-72
2024/01/15 08:09:04;;;;;;;;;;;;;;;-0.63;100.00;100147.41;5051643;28;19956;-72
2024/01/15 08:11:30;;;;;;;;;;;;;;;-0.60;100.00;100170.69;5017813;28;20427;-72
2024/01/15 08:13:57;;;;;;;;;;;;;;;-0.56;100.00;100175.03;5018820;28;19928;-72
2024/01/15 08:16:25;;;;;;;;;;;;;;;-0.56;100.00;100169.88;5034462;28;20502;-72
2024/01/15 08:18:50;;;;;;;;;;;;;;;-0.55;100.00;100176.78;5034994;28;19917;-72
2024/01/15 08:21:16;;;;;;;;;;;;;;;-0.51;100.00;100177.72;5018568;28;19917;-70
2024/01/15 08:23:41;;;;;;;;;;;;;;;-0.53;100.00;100175.97;5038143;28;20398;-69
2024/01/15 08:26:07;;;;;;;;;;;;;;;-0.54;100.00;100178.53;5054339;28;19912;-69
2024/01/15 08:28:32;;;;;;;;;;;;;;;-0.56;100.00;100177.59;5054576;28;19919;-69
2024/01/15 08:30:58;;;;;;;;;;;;;;;-0.56;100.00;100175.03;5054361;28;19923;-69
2024/01/15 08:33:23;;;;;;;;;;;;;;;-0.58;100.00;100174.13;5038153;28;19920;-69
2024/01/15 08:35:50;;;;;;;;;;;;;;;-0.57;100.00;100175.88;5037977;28;19916;-69
2024/01/15 08:38:16;;;;;;;;;;;;;;;-0.60;100.00;100173.25;5037879;28;19921;-69
2024/01/15 08:40:41;;;;;;;;;;;;;;;-0.59;100.00;100174.97;5054514;28;19982;-69
2024/01/15 08:43:06;;;;;;;;;;;;;;;-0.60;100.00;100171.53;5033573;28;20297;-69
2024/01/15 08:45:32;;;;;;;;;;;;;;;-0.56;100.00;100177.59;5034189;28;20369;-69
2024/01/15 08:47:57;;;;;;;;;;;;;;;-0.43;100.00;100187.38;5034227;28;19912;-69
2024/01/15 08:50:23;;;;;;;;;;;;;;;-0.45;100.00;100181.28;5034395;28;20289;-69
2024/01/15 08:52:48;;;;;;;;;;;;;;;-0.41;100.00;100187.41;5027694;28;19920;-69
2024/01/15 08:55:13;;;;;;;;;;;;;;;-0.38;100.00;100188.31;5034192;28;19928;-69
2024/01/15 08:57:39;;;;;;;;;;;;;;;-0.35;100.00;100198.69;5027616;28;20388;-69
2024/01/15 09:00:08;;;;;;;;;;;;;;;-0.33;100.00;100190.13;5033968;28;19917;-69
2024/01/15 09:02:34;;;;;;;;;;;;;;;-0.36;100.00;100191.81;5020113;28;19920;-69
2024/01/15 09:04:59;;;;;;;;;;;;;;;-0.39;100.00;100186.59;5046677;28;20333;-69
2024/01/15 09:07:26;;;;;;;;;;;;;;;-0.37;100.00;100197.78;5050881;28;20376;-70
2024/01/15 09:09:51;;;;;;;;;;;;;;;-0.36;100.00;100196.97;5038050;28;20315;-69
2024/01/15 09:12:18;;;;;;;;;;;;;;;-0.39;100.00;100199.47;5036848;28;19927;-70
2024/01/15 09:14:43;;;;;;;;;;;;;;;-0.39;100.00;100199.47;5033591;28;19924;-70
2024/01/15 09:17:09;;;;;;;;;;;;;;;-0.37;100.00;100196.94;5052008;28;19987;-69
2024/01/15 09:19:34;;;;;;;;;;;;;;;-0.37;100.00;100196.94;5033190;28;19925;-70
2024/01/15 09:22:00;;;;;;;;;;;;;;;-0.38;100.00;100190.88;5051637;28;19920;-70
2024/01/15 09:24:26;;;;;;;;;;;;;;;-0.37;100.00;100179.75;5053958;28;19925;-70
2024/01/15 09:26:51;;;;;;;;;;;;;;;-0.33;100.00;100192.69;5036211;28;19969;-69
2024/01/15 09:29:18;;;;;;;;;;;;;;;-0.32;100.00;100182.44;5033682;28;19924;-70
2024/01/15 09:31:43;;;;;;;;;;;;;;;-0.25;100.00;100183.44;5033477;28;19917;-70
2024/01/15 09:34:08;;;;;;;;;;;;;;;-0.14;100.00;100191.38;5035076;28;19942;-70
2024/01/15 09:36:38;;;;;;;;;;;;;;;-0.03;100.00;100184.75;5057268;28;19917;-70
2024/01/15 09:39:04;;;;;;;;;;;;;;;0.05;100.00;100182.34;5048775;28;19947;-70
2024/01/15 09:41:29;;;;;;;;;;;;;;;0.09;100.00;100187.59;5037033;28;19975;-69
2024/01/15 09:43:54;;;;;;;;;;;;;;;0.12;100.00;100185.06;5037215;28;19951;-70
2024/01/15 09:46:20;;;;;;;;;;;;;;;0.18;100.00;100181.75;5037503;28;19963;-70
2024/01/15 09:48:45;;;;;;;;;;;;;;;0.34;100.00;100186.38;5044174;28;19928;-72
2024/01/15 09:51:13;;;;;;;;;;;;;;;0.47;100.00;100181.44;5037143;28;19921;-73
2024/01/15 09:53:39;;;;;;;;;;;;;;;0.59;100.00;100191.09;5051012;28;19974;-73
2024/01/15 09:56:05;;;;;;;;;;;;;;;1.22;100.00;100194.75;5029499;28;19921;-69
2024/01/15 09:58:30;;;;;;;;;;;;;;;1.37;100.00;100195.00;5040100;28;19927;-69
2024/01/15 10:00:56;;;;;;;;;;;;;;;1.24;100.00;100198.25;5049346;28;19917;-69
2024/01/15 10:03:24;;;;;;;;;;;;;;;1.10;100.00;100195.44;5030718;28;22627;-70
2024/01/15 10:05:49;;;;;;;;;;;;;;;0.96;100.00;100190.06;5056944;28;19924;-70
2024/01/15 10:08:14;;;;;;;;;;;;;;;0.92;100.00;100190.84;5054308;28;19928;-69
2024/01/15 10:10:40;;;;;;;;;;;;;;;1.31;100.00;100191.50;5024693;28;19954;-70
2024/01/15 10:13:07;;;;;;;;;;;;;;;2.54;100.00;100190.50;5036133;28;19931;-69
2024/01/15 10:15:38;;;;;;;;;;;;;;;3.22;100.00;100187.63;5020550;28;19917;-69
2024/01/15 10:18:04;;;;;;;;;;;;;;;4.48;100.00;100190.03;5021021;28;20331;-69
2024/01/15 10:20:31;;;;;;;;;;;;;;;6.12;97.44;100184.75;5044965;28;19966;-69
2024/01/15 10:22:57;;;;;;;;;;;;;;;5.54;91.10;100189.22;5048316;28;20270;-69
2024/01/15 10:25:25;;;;;;;;;;;;;;;5.20;95.39;100197.91;5028694;28;19978;-70
2024/01/15 10:28:01;;;;;;;;;;;;;;;5.20;99.08;100186.63;5031726;28;19963;-73
2024/01/15 10:30:26;;;;;;;;;;;;;;;4.81;98.57;100194.44;5020593;28;19943;-73
2024/01/15 10:32:59;;;;;;;;;;;;;;;4.61;99.88;100193.50;5020323;28;19917;-73
2024/01/15 10:35:26;;;;;;;;;;;;;;;4.28;100.00;100195.16;5048636;28;19960;-74
2024/01/15 10:37:51;;;;;;;;;;;;;;;3.72;100.00;100201.78;5056084;28;19962;-73
2024/01/15 10:40:18;;;;;;;;;;;;;;;3.24;100.00;100201.47;5053943;28;19952;-73
2024/01/15 10:42:43;;;;;;;;;;;;;;;2.88;100.00;100195.13;5041995;28;19920;-73
2024/01/15 10:45:09;;;;;;;;;;;;;;;2.69;100.00;100204.44;5035709;28;19927;-73
2024/01/15 10:47:35;;;;;;;;;;;;;;;2.45;100.00;100199.88;5049716;28;20410;-74
2024/01/15 10:50:01;;;;;;;;;;;;;;;2.26;100.00;100186.72;5037426;28;20296;-72
2024/01/15 10:52:27;;;;;;;;;;;;;;;2.02;100.00;100190.75;5045588;28;19947;-73
2024/01/15 10:54:52;;;;;;;;;;;;;;;1.82;100.00;100193.06;5043871;28;19913;-73
2024/01/15 10:57:20;;;;;;;;;;;;;;;1.70;100.00;100178.28;5039162;28;19939;-73
2024/01/15 10:59:45;;;;;;;;;;;;;;;2.31;100.00;100182.47;5055713;28;19920;-72
2024/01/15 11:02:12;;;;;;;;;;;;;;;4.42;100.00;100180.50;5054435;28;20293;-72
2024/01/15 11:04:37;;;;;;;;;;;;;;;6.21;100.00;100184.72;5038129;28;19964;-73
2024/01/15 11:07:03;;;;;;;;;;;;;;;7.56;96.72;100192.47;5055616;28;20066;-73
2024/01/15 11:09:31;;;;;;;;;;;;;;;8.41;89.06;100189.72;5050902;28;20020;-73
2024/01/15 11:12:13;;;;;;;;;;;;;;;8.07;89.40;100195.38;5038554;28;20375;-73
2024/01/15 11:14:39;;;;;;;;;;;;;;;8.49;87.72;100176.59;5050242;28;19958;-73
2024/01/15 11:17:05;;;;;;;;;;;;;;;10.25;81.02;100178.78;5040406;28;19921;-74
2024/01/15 11:19:38;;;;;;;;;;;;;;;10.43;79.30;100179.31;5027868;28;20019;-74
2024/01/15 11:22:05;;;;;;;;;;;;;;;11.39;80.55;100180.56;5052878;28;20378;-75
2024/01/15 11:24:36;;;;;;;;;;;;;;;12.75;76.86;100171.50;5055913;28;20372;-74
2024/01/15 11:27:01;;;;;;;;;;;;;;;13.70;73.84;100167.47;5055309;28;20245;-74
2024/01/15 11:29:27;;;;;;;;;;;;;;;13.85;64.13;100173.97;5055815;28;20260;-73
2024/01/15 11:31:55;;;;;;;;;;;;;;;12.75;72.76;100172.34;5039531;28;19913;-74
2024/01/15 11:34:21;;;;;;;;;;;;;;;11.06;81.14;100183.13;5035662;28;19916;-74
2024/01/15 11:36:49;;;;;;;;;;;;;;;9.43;87.85;100188.22;5048379;28;19939;-74
2024/01/15 11:39:27;;;;;;;;;;;;;;;7.97;87.51;100192.03;5055783;28;19927;-74
2024/01/15 11:41:54;;;;;;;;;;;;;;;6.87;96.68;100197.38;5038948;28;20292;-74
2024/01/15 11:44:19;;;;;;;;;;;;;;;5.88;94.99;100203.00;5038546;28;20378;-73
2024/01/15 11:46:53;;;;;;;;;;;;;;;5.04;97.79;100193.56;5038225;28;20023;-74
2024/01/15 11:49:28;;;;;;;;;;;;;;;4.56;100.00;100187.47;5055239;28;19916;-73
2024/01/15 11:51:55;;;;;;;;;;;;;;;4.10;100.00;100194.22;5054792;28;19924;-70
2024/01/15 11:54:22;;;;;;;;;;;;;;;4.07;100.00;100193.34;5035648;28;19922;-69
2024/01/15 11:56:48;;;;;;;;;;;;;;;4.20;100.00;100202.06;5040266;28;19958;-73
2024/01/15 11:59:13;;;;;;;;;;;;;;;4.10;100.00;100194.22;5044756;28;20296;-69
2024/01/15 12:01:39;;;;;;;;;;;;;;;3.72;100.00;100200.09;5032053;28;19916;-69
2024/01/15 12:04:04;;;;;;;;;;;;;;;3.46;100.00;100211.16;5022154;28;20016;-70
2024/01/15 12:06:29;;;;;;;;;;;;;;;3.45;100.00;100214.59;5054322;28;19925;-69
2024/01/15 12:09:10;;;;;;;;;;;;;;;3.71;100.00;100221.66;5035083;28;19921;-69
2024/01/15 12:11:36;;;;;;;;;;;;;;;3.47;99.59;100223.22;5027638;28;19920;-69
2024/01/15 12:14:01;;;;;;;;;;;;;;;3.06;100.00;100223.78;5051348;28;19943;-69
2024/01/15 12:16:27;;;;;;;;;;;;;;;2.83;100.00;100208.03;5034259;28;20391;-69
2024/01/15 12:18:52;;;;;;;;;;;;;;;2.40;100.00;100208.44;5022486;28;20020;-69
2024/01/15 12:21:18;;;;;;;;;;;;;;;2.08;100.00;100218.38;5034003;28;20016;-69
2024/01/15 12:23:46;;;;;;;;;;;;;;;1.89;100.00;100228.47;5034809;28;19916;-72